Time;durP1;ratioP1;P1;durP2;ratioP2;P2;SDS_P1;SDS_P2;PMS_P1;PMS_P2;Temp;Humidity;BMP_temperature;BMP_pressure;BME280_temperature;BME280_humidity;BME280_pressure;Samples;Min_cycle;Max_cycle;Signal;HPM_P1;HPM_P2
2021/06/15 00:01:50;;;;;;;5.57;4.80;;;17.80;93.40;;;;;;5141920;27;20199;-41
2021/06/15 00:04:16;;;;;;;7.20;5.67;;;17.80;93.70;;;;;;5141728;27;20573;-41
2021/06/15 00:06:42;;;;;;;5.70;5.20;;;17.70;93.70;;;;;;5141723;27;20262;-41
2021/06/15 00:09:08;;;;;;;7.83;5.80;;;17.70;94.00;;;;;;5141715;27;20167;-41
2021/06/15 00:11:34;;;;;;;7.27;5.80;;;17.70;94.20;;;;;;5141615;27;20682;-40
2021/06/15 00:14:00;;;;;;;5.20;4.80;;;17.60;94.20;;;;;;5141653;27;20553;-40
2021/06/15 00:16:25;;;;;;;8.57;5.93;;;17.60;94.20;;;;;;5141907;27;20405;-41
2021/06/15 00:18:51;;;;;;;6.43;5.10;;;17.50;94.40;;;;;;5141929;27;20256;-43
2021/06/15 00:21:17;;;;;;;6.47;5.77;;;17.50;94.50;;;;;;5139418;27;20201;-41
2021/06/15 00:23:42;;;;;;;6.27;5.67;;;17.50;94.60;;;;;;5126537;27;20208;-41
2021/06/15 00:26:08;;;;;;;6.53;5.10;;;17.40;94.50;;;;;;5141413;27;20175;-41
2021/06/15 00:28:33;;;;;;;6.73;5.43;;;17.40;94.60;;;;;;5141642;27;20171;-40
2021/06/15 00:31:00;;;;;;;7.33;5.60;;;17.40;94.70;;;;;;5140098;27;20264;-42
2021/06/15 00:33:26;;;;;;;5.50;5.00;;;17.30;94.90;;;;;;5140377;27;20544;-41
2021/06/15 00:35:51;;;;;;;5.83;5.33;;;17.30;94.70;;;;;;5140674;27;20420;-41
2021/06/15 00:38:17;;;;;;;5.83;5.23;;;17.30;94.90;;;;;;5140520;27;20174;-41
2021/06/15 00:40:43;;;;;;;6.63;5.97;;;17.30;94.80;;;;;;5139955;27;20186;-39
2021/06/15 00:43:08;;;;;;;7.40;6.40;;;17.20;94.80;;;;;;5122243;27;20205;-42
2021/06/15 00:45:34;;;;;;;6.80;6.20;;;17.20;94.90;;;;;;5141010;27;20409;-41
2021/06/15 00:48:00;;;;;;;6.73;6.13;;;17.20;95.00;;;;;;5140427;27;20163;-41
2021/06/15 00:50:27;;;;;;;6.67;6.07;;;17.20;95.00;;;;;;5122774;27;20228;-41
2021/06/15 00:52:53;;;;;;;6.70;6.10;;;17.10;95.20;;;;;;5141301;27;20432;-42
2021/06/15 00:55:24;;;;;;;7.13;5.90;;;17.10;95.20;;;;;;5141035;27;20413;-40
2021/06/15 00:57:52;;;;;;;6.83;6.20;;;17.10;95.30;;;;;;5141675;27;20433;-40
2021/06/15 01:00:19;;;;;;;6.17;5.50;;;17.00;95.30;;;;;;5141105;27;20405;-41
2021/06/15 01:02:45;;;;;;;9.43;6.43;;;17.00;95.60;;;;;;5140984;27;20456;-42
2021/06/15 01:05:13;;;;;;;7.00;6.40;;;17.00;95.50;;;;;;5141145;27;20807;-41
2021/06/15 01:08:22;;;;;;;5.90;5.40;;;17.00;95.70;;;;;;5121930;27;20461;-40
2021/06/15 01:11:00;;;;;;;6.87;5.43;;;17.00;95.80;;;;;;5140066;27;20409;-40
2021/06/15 01:13:51;;;;;;;6.13;5.53;;;16.90;95.70;;;;;;5140143;27;20424;-41
2021/06/15 01:16:41;;;;;;;6.67;6.07;;;16.90;95.70;;;;;;5120696;27;20895;-41
2021/06/15 01:19:13;;;;;;;6.13;5.30;;;16.90;95.60;;;;;;5122345;27;20472;-40
2021/06/15 01:21:56;;;;;;;6.70;5.97;;;16.90;95.80;;;;;;5140972;27;20893;-39
2021/06/15 01:24:31;;;;;;;8.13;5.70;;;16.80;95.70;;;;;;5140647;27;20909;-40
2021/06/15 01:27:42;;;;;;;6.87;5.60;;;16.80;95.60;;;;;;5140535;27;20694;-40
2021/06/15 01:30:11;;;;;;;6.33;5.70;;;16.70;95.70;;;;;;5112145;27;20852;-41
2021/06/15 01:32:37;;;;;;;7.60;6.63;;;16.70;96.00;;;;;;5140408;27;20404;-41
2021/06/15 01:35:05;;;;;;;6.00;5.10;;;16.70;95.90;;;;;;5121463;27;20424;-41
2021/06/15 01:37:41;;;;;;;13.00;6.23;;;16.70;95.80;;;;;;5121955;27;20420;-42
2021/06/15 01:40:16;;;;;;;7.13;6.33;;;16.60;95.80;;;;;;5140169;27;20853;-42
2021/06/15 01:43:01;;;;;;;8.10;5.67;;;16.60;96.20;;;;;;5122029;27;20459;-40
2021/06/15 01:45:31;;;;;;;6.67;6.07;;;16.60;96.00;;;;;;5122306;27;20417;-42
2021/06/15 01:48:28;;;;;;;6.63;6.00;;;16.60;95.90;;;;;;5122386;27;20408;-41
2021/06/15 01:50:55;;;;;;;6.30;5.67;;;16.60;95.90;;;;;;5140607;27;20408;-40
2021/06/15 01:53:22;;;;;;;6.30;5.70;;;16.60;95.90;;;;;;5139883;27;20473;-41
2021/06/15 01:55:51;;;;;;;7.60;6.30;;;16.60;96.00;;;;;;5139863;27;20448;-42
2021/06/15 01:58:17;;;;;;;6.10;5.50;;;16.50;96.00;;;;;;5120775;27;20421;-41
2021/06/15 02:00:44;;;;;;;6.73;6.13;;;16.50;96.10;;;;;;5124282;27;20863;-40
2021/06/15 02:03:11;;;;;;;5.90;5.27;;;16.40;96.10;;;;;;5120675;27;20452;-42
2021/06/15 02:05:43;;;;;;;5.70;5.20;;;16.40;96.10;;;;;;5138806;27;20433;-40
2021/06/15 02:08:14;;;;;;;7.10;6.40;;;16.30;96.00;;;;;;5139970;27;20432;-42
2021/06/15 02:10:40;;;;;;;7.27;6.53;;;16.30;96.10;;;;;;5120935;27;20420;-42
2021/06/15 02:13:08;;;;;;;6.50;5.90;;;16.20;96.20;;;;;;5121497;27;20408;-41
2021/06/15 02:15:37;;;;;;;5.90;5.30;;;16.20;96.50;;;;;;5121238;27;20425;-40
2021/06/15 02:18:05;;;;;;;6.73;6.13;;;16.20;96.50;;;;;;5118108;28;20556;-40
2021/06/15 02:20:40;;;;;;;8.63;5.80;;;16.10;96.40;;;;;;5118521;28;20471;-40
2021/06/15 02:23:09;;;;;;;7.13;6.30;;;16.10;96.40;;;;;;5117968;28;20452;-41
2021/06/15 02:25:38;;;;;;;6.33;5.50;;;16.10;96.50;;;;;;5119046;28;20479;-40
2021/06/15 02:28:06;;;;;;;5.87;5.33;;;16.10;96.70;;;;;;5118786;28;20818;-40
2021/06/15 02:30:38;;;;;;;7.40;5.20;;;16.10;96.70;;;;;;5119688;28;20851;-40
2021/06/15 02:33:19;;;;;;;7.03;6.07;;;16.10;96.90;;;;;;5119676;28;20401;-42
2021/06/15 02:35:52;;;;;;;7.30;5.60;;;16.10;97.00;;;;;;5119464;28;20422;-42
2021/06/15 02:38:30;;;;;;;6.70;5.90;;;16.10;97.10;;;;;;5117001;28;20874;-42
2021/06/15 02:41:01;;;;;;;10.53;6.30;;;16.00;97.10;;;;;;5117687;28;20792;-41
2021/06/15 02:43:27;;;;;;;6.80;6.20;;;16.10;97.30;;;;;;5117493;28;20414;-40
2021/06/15 02:45:54;;;;;;;9.03;5.87;;;16.00;96.90;;;;;;5117841;28;20437;-40
2021/06/15 02:48:22;;;;;;;8.33;6.27;;;16.00;96.90;;;;;;5118281;28;20437;-41
2021/06/15 02:50:49;;;;;;;6.00;5.50;;;16.00;96.80;;;;;;5118146;28;20398;-43
2021/06/15 02:53:17;;;;;;;6.07;5.47;;;15.90;96.80;;;;;;5117277;28;20416;-41
2021/06/15 02:56:04;;;;;;;8.97;6.43;;;15.80;96.80;;;;;;5100173;28;20410;-40
2021/06/15 02:58:30;;;;;;;7.73;6.50;;;15.80;96.90;;;;;;5117347;28;20409;-41
2021/06/15 03:00:56;;;;;;;6.20;5.40;;;15.70;96.80;;;;;;5117089;28;20704;-40
2021/06/15 03:03:22;;;;;;;6.97;6.00;;;15.70;97.00;;;;;;5117954;28;20458;-40
2021/06/15 03:05:47;;;;;;;6.97;6.10;;;15.70;97.10;;;;;;5117490;28;20301;-41
2021/06/15 03:08:13;;;;;;;9.63;5.90;;;15.70;97.10;;;;;;5117658;28;20171;-41
2021/06/15 03:10:39;;;;;;;6.90;6.40;;;15.70;97.00;;;;;;5118189;28;20247;-41
2021/06/15 03:13:13;;;;;;;6.37;5.83;;;15.70;97.00;;;;;;5118400;28;20183;-40
2021/06/15 03:15:51;;;;;;;6.40;5.80;;;15.70;96.90;;;;;;5117746;28;20409;-40
2021/06/15 03:18:43;;;;;;;7.43;6.70;;;15.70;96.80;;;;;;5137954;27;20570;-40
2021/06/15 03:21:19;;;;;;;9.97;6.20;;;15.70;96.70;;;;;;5100028;28;20432;-40
2021/06/15 03:23:52;;;;;;;10.53;6.90;;;15.70;96.70;;;;;;5120337;28;20421;-40
2021/06/15 03:26:33;;;;;;;7.23;5.83;;;15.70;96.70;;;;;;5121437;27;20405;-40
2021/06/15 03:29:00;;;;;;;6.50;5.90;;;15.70;96.80;;;;;;5115058;28;20852;-39
2021/06/15 03:31:27;;;;;;;6.80;6.20;;;15.70;96.80;;;;;;5139074;27;20451;-40
2021/06/15 03:33:55;;;;;;;6.43;5.83;;;15.70;96.90;;;;;;5123638;27;20458;-40
2021/06/15 03:36:23;;;;;;;7.17;6.47;;;15.70;97.10;;;;;;5124366;27;20822;-40
2021/06/15 03:38:50;;;;;;;7.63;6.83;;;15.70;97.00;;;;;;5142235;27;20432;-40
2021/06/15 03:41:16;;;;;;;6.27;5.77;;;15.70;96.90;;;;;;5123498;27;20857;-40
2021/06/15 03:43:47;;;;;;;6.30;5.73;;;15.70;96.90;;;;;;5115923;28;20780;-40
2021/06/15 03:46:13;;;;;;;9.00;6.37;;;15.70;97.00;;;;;;5121182;27;20440;-40
2021/06/15 03:48:44;;;;;;;7.57;6.20;;;15.70;97.00;;;;;;5124198;27;20420;-40
2021/06/15 03:51:22;;;;;;;7.30;6.60;;;15.70;97.20;;;;;;5141872;27;20409;-39
2021/06/15 03:53:48;;;;;;;7.40;5.97;;;15.70;97.00;;;;;;5123548;27;20830;-41
2021/06/15 03:56:15;;;;;;;6.77;6.00;;;15.80;97.00;;;;;;5123768;27;20473;-40
2021/06/15 03:58:40;;;;;;;6.17;5.57;;;15.80;96.80;;;;;;5116588;28;20164;-40
2021/06/15 04:01:07;;;;;;;6.43;5.80;;;15.80;96.80;;;;;;5118811;27;20408;-41
2021/06/15 04:03:36;;;;;;;6.67;6.07;;;15.80;96.80;;;;;;5123950;27;20635;-38
2021/06/15 04:06:03;;;;;;;6.53;5.87;;;16.10;97.10;;;;;;5141884;27;20408;-37
2021/06/15 04:08:29;;;;;;;7.10;6.40;;;16.60;96.10;;;;;;5118591;27;20810;-37
2021/06/15 04:10:55;;;;;;;7.27;5.93;;;17.00;95.70;;;;;;5113754;28;20412;-37
2021/06/15 04:13:22;;;;;;;5.63;5.13;;;17.30;94.60;;;;;;5121342;27;20417;-37
2021/06/15 04:15:48;;;;;;;6.03;5.53;;;17.60;94.00;;;;;;5123792;27;20451;-39
2021/06/15 04:18:16;;;;;;;8.70;6.43;;;17.80;93.50;;;;;;5104144;27;20882;-38
2021/06/15 04:20:45;;;;;;;5.93;5.43;;;18.10;93.10;;;;;;5112195;28;20413;-37
2021/06/15 04:23:18;;;;;;;5.93;5.40;;;18.30;92.90;;;;;;5136983;27;20460;-38
2021/06/15 04:25:46;;;;;;;6.63;6.10;;;18.50;92.60;;;;;;5140402;27;20409;-38
2021/06/15 04:28:12;;;;;;;6.40;5.80;;;18.60;92.20;;;;;;5122304;28;20401;-38
2021/06/15 04:30:39;;;;;;;6.17;5.57;;;18.70;92.00;;;;;;5137727;27;20417;-38
2021/06/15 04:33:08;;;;;;;6.10;5.50;;;18.80;91.90;;;;;;5138839;27;20560;-39
2021/06/15 04:35:42;;;;;;;6.90;6.20;;;18.90;91.80;;;;;;5139117;27;20694;-39
2021/06/15 04:38:15;;;;;;;5.87;5.33;;;19.00;91.60;;;;;;5139484;27;20560;-38
2021/06/15 04:40:44;;;;;;;6.70;6.10;;;19.00;91.60;;;;;;5121979;27;20412;-38
2021/06/15 04:43:30;;;;;;;6.10;5.70;;;19.10;91.30;;;;;;5121726;27;20460;-38
2021/06/15 04:46:04;;;;;;;6.63;6.03;;;19.20;91.20;;;;;;5140555;27;20401;-38
2021/06/15 04:48:31;;;;;;;8.00;6.57;;;19.20;91.10;;;;;;5122679;27;20393;-38
2021/06/15 04:51:02;;;;;;;7.10;6.40;;;19.30;91.00;;;;;;5121834;27;20759;-39
2021/06/15 04:53:35;;;;;;;7.10;5.97;;;19.40;90.90;;;;;;5136283;27;20695;-39
2021/06/15 04:56:02;;;;;;;6.10;5.57;;;19.50;90.80;;;;;;5129358;27;20576;-37
2021/06/15 04:58:30;;;;;;;6.73;6.13;;;19.60;90.70;;;;;;5120693;27;20584;-40
2021/06/15 05:00:59;;;;;;;8.70;7.57;;;19.60;90.40;;;;;;5138311;27;20432;-38
2021/06/15 05:03:25;;;;;;;7.03;6.33;;;19.70;90.40;;;;;;5137806;27;20460;-37
2021/06/15 05:05:51;;;;;;;8.70;6.50;;;19.70;90.40;;;;;;5137704;27;20751;-39
2021/06/15 05:08:21;;;;;;;6.90;6.30;;;19.80;90.20;;;;;;5119510;27;20423;-37
2021/06/15 05:10:47;;;;;;;6.27;5.77;;;19.90;90.20;;;;;;5119137;27;20182;-40
2021/06/15 05:13:13;;;;;;;6.90;6.27;;;19.90;90.20;;;;;;5119826;27;20417;-40
2021/06/15 05:15:43;;;;;;;7.30;6.60;;;20.00;90.30;;;;;;5119291;27;20179;-39
2021/06/15 05:18:09;;;;;;;6.20;5.40;;;20.00;90.20;;;;;;5137457;27;20253;-38
2021/06/15 05:20:35;;;;;;;7.03;6.30;;;20.10;90.10;;;;;;5119042;27;20896;-39
2021/06/15 05:23:03;;;;;;;7.13;6.37;;;20.20;90.00;;;;;;5136696;27;20460;-37
2021/06/15 05:25:29;;;;;;;6.77;6.07;;;20.30;89.80;;;;;;5138866;27;20276;-38
2021/06/15 05:27:55;;;;;;;7.13;6.43;;;20.30;89.80;;;;;;5138596;27;20905;-38
2021/06/15 05:30:22;;;;;;;6.70;6.00;;;20.40;89.70;;;;;;5138247;27;20420;-38
2021/06/15 05:32:47;;;;;;;6.53;5.83;;;20.40;89.40;;;;;;5138554;27;20568;-39
2021/06/15 05:35:13;;;;;;;6.57;6.07;;;20.50;89.10;;;;;;5139266;27;20432;-39
2021/06/15 05:37:41;;;;;;;8.77;6.30;;;20.50;89.10;;;;;;5138103;27;20573;-39
2021/06/15 05:40:07;;;;;;;7.27;5.60;;;20.60;89.20;;;;;;5137323;27;20206;-40
2021/06/15 05:42:32;;;;;;;7.43;6.73;;;20.70;88.70;;;;;;5138352;27;20503;-39
2021/06/15 05:44:59;;;;;;;6.73;6.20;;;20.80;88.10;;;;;;5138359;27;20460;-39
2021/06/15 05:47:25;;;;;;;8.47;5.60;;;20.90;87.70;;;;;;5137686;27;20183;-39
2021/06/15 05:49:50;;;;;;;7.87;5.30;;;21.00;87.30;;;;;;5135783;27;20416;-38
2021/06/15 05:52:17;;;;;;;6.10;5.50;;;21.20;87.00;;;;;;5136128;27;20175;-41
2021/06/15 05:54:43;;;;;;;8.10;6.27;;;21.30;86.20;;;;;;5136899;27;20175;-42
2021/06/15 05:57:09;;;;;;;9.83;5.70;;;21.30;85.60;;;;;;5134511;27;20409;-42
2021/06/15 05:59:35;;;;;;;6.00;5.40;;;21.20;86.10;;;;;;5135310;27;20179;-42
2021/06/15 06:02:01;;;;;;;5.80;5.30;;;21.20;86.90;;;;;;5136493;27;20456;-42
2021/06/15 06:04:30;;;;;;;7.93;5.47;;;21.20;86.40;;;;;;5102357;27;20453;-41
2021/06/15 06:09:41;;;;;;;6.03;5.47;;;21.40;86.60;;;;;;5137904;27;20431;-41
2021/06/15 06:12:08;;;;;;;5.67;5.10;;;21.50;86.50;;;;;;5137955;27;20754;-41
2021/06/15 06:14:34;;;;;;;6.07;5.47;;;21.60;86.10;;;;;;5139528;27;20818;-41
2021/06/15 06:17:00;;;;;;;5.60;5.00;;;21.70;85.30;;;;;;5139058;27;20475;-43
2021/06/15 06:19:26;;;;;;;7.40;5.23;;;21.90;84.80;;;;;;5109924;27;20451;-45
2021/06/15 06:21:52;;;;;;;6.20;5.70;;;22.10;84.60;;;;;;5119949;27;20472;-41
2021/06/15 06:24:18;;;;;;;5.13;4.63;;;22.20;84.00;;;;;;5120234;27;20448;-43
2021/06/15 06:26:50;;;;;;;5.73;5.13;;;22.40;83.50;;;;;;5137508;27;20257;-40
2021/06/15 06:29:16;;;;;;;6.33;5.70;;;22.50;83.10;;;;;;5137461;27;20421;-41
2021/06/15 06:31:42;;;;;;;8.00;5.20;;;22.60;82.60;;;;;;5137839;27;20428;-42
2021/06/15 06:34:08;;;;;;;6.30;5.43;;;22.70;82.50;;;;;;5137607;27;20424;-41
2021/06/15 06:36:34;;;;;;;5.80;4.97;;;22.80;81.80;;;;;;5137770;27;20194;-42
2021/06/15 06:39:00;;;;;;;7.27;5.50;;;22.70;81.40;;;;;;5136409;27;20439;-42
2021/06/15 06:41:27;;;;;;;9.53;5.50;;;22.90;81.40;;;;;;5118882;27;20205;-41
2021/06/15 06:43:53;;;;;;;6.80;5.53;;;22.60;80.60;;;;;;5135970;27;20428;-41
2021/06/15 06:46:19;;;;;;;7.40;5.30;;;22.70;80.40;;;;;;5137455;27;20814;-45
2021/06/15 06:48:46;;;;;;;7.53;5.50;;;22.40;81.50;;;;;;5136767;27;20205;-46
2021/06/15 06:51:12;;;;;;;8.33;5.10;;;22.60;81.50;;;;;;5137319;27;20511;-44
2021/06/15 06:53:37;;;;;;;6.10;5.27;;;22.70;80.50;;;;;;5137891;27;20527;-42
2021/06/15 06:56:05;;;;;;;6.10;5.50;;;22.80;81.00;;;;;;5137597;27;20422;-41
2021/06/15 06:58:31;;;;;;;5.27;4.47;;;22.90;81.00;;;;;;5136329;27;20282;-41
2021/06/15 07:00:57;;;;;;;4.77;4.37;;;23.00;80.40;;;;;;5136935;27;20496;-43
2021/06/15 07:03:22;;;;;;;7.50;5.00;;;23.40;80.90;;;;;;5137045;27;20322;-42
2021/06/15 07:05:48;;;;;;;5.97;5.47;;;23.70;79.10;;;;;;5137671;27;20171;-43
2021/06/15 07:08:13;;;;;;;4.73;4.33;;;24.00;77.80;;;;;;5138300;27;20247;-42
2021/06/15 07:10:39;;;;;;;7.20;5.33;;;24.20;77.50;;;;;;5137679;27;20198;-41
2021/06/15 07:13:05;;;;;;;6.40;4.80;;;24.40;76.20;;;;;;5137263;28;20178;-41
2021/06/15 07:15:30;;;;;;;6.63;5.43;;;24.60;75.80;;;;;;5137202;28;20175;-41
2021/06/15 07:17:56;;;;;;;6.60;5.23;;;24.80;75.40;;;;;;5136893;28;20231;-42
2021/06/15 07:20:21;;;;;;;5.30;4.90;;;25.00;74.30;;;;;;5118381;28;20290;-42
2021/06/15 07:22:47;;;;;;;6.30;5.70;;;25.20;73.60;;;;;;5136832;28;20210;-42
2021/06/15 07:25:13;;;;;;;6.90;5.20;;;25.50;71.90;;;;;;5137609;28;20194;-42
2021/06/15 07:27:39;;;;;;;5.60;5.10;;;25.50;72.10;;;;;;5138048;28;20434;-42
2021/06/15 07:30:06;;;;;;;5.57;5.07;;;25.10;71.60;;;;;;5136234;28;20429;-42
2021/06/15 07:32:32;;;;;;;5.73;4.67;;;25.10;71.20;;;;;;5137668;28;20175;-42
2021/06/15 07:34:58;;;;;;;6.17;4.93;;;25.40;71.40;;;;;;5138131;28;20588;-42
2021/06/15 07:37:23;;;;;;;5.90;5.17;;;25.70;70.00;;;;;;5136761;28;20179;-41
2021/06/15 07:39:49;;;;;;;5.50;4.80;;;25.90;68.50;;;;;;5136534;28;20457;-43
2021/06/15 07:42:15;;;;;;;5.57;5.00;;;26.00;67.80;;;;;;5135702;28;20215;-41
2021/06/15 07:44:41;;;;;;;4.97;4.47;;;26.20;66.00;;;;;;5137059;28;20527;-42
2021/06/15 07:47:06;;;;;;;6.33;4.70;;;26.30;64.60;;;;;;5135362;28;20665;-42
2021/06/15 07:49:32;;;;;;;5.37;4.70;;;26.30;65.00;;;;;;5134803;28;20187;-42
2021/06/15 07:51:58;;;;;;;5.63;5.13;;;26.60;64.30;;;;;;5133039;28;20756;-42
2021/06/15 07:54:24;;;;;;;4.97;4.33;;;26.20;63.50;;;;;;5134159;28;20190;-42
2021/06/15 07:56:50;;;;;;;4.13;3.73;;;26.70;62.70;;;;;;5134187;28;20722;-41
2021/06/15 07:59:15;;;;;;;5.90;4.47;;;27.10;62.30;;;;;;5128584;28;20192;-43
2021/06/15 08:01:41;;;;;;;4.77;4.30;;;27.30;60.30;;;;;;5113539;28;20286;-44
2021/06/15 08:04:07;;;;;;;4.90;4.50;;;27.20;60.40;;;;;;5115279;28;20642;-42
2021/06/15 08:06:36;;;;;;;5.40;4.90;;;27.60;59.90;;;;;;5118559;28;20457;-42
2021/06/15 08:09:01;;;;;;;12.00;4.93;;;27.70;59.50;;;;;;5119890;28;20501;-42
2021/06/15 08:11:27;;;;;;;5.10;4.60;;;27.30;58.80;;;;;;5119355;28;20413;-42
2021/06/15 08:13:53;;;;;;;4.73;4.23;;;27.60;58.70;;;;;;5118595;28;20558;-42
2021/06/15 08:16:19;;;;;;;4.60;4.20;;;28.20;57.80;;;;;;5120131;28;20172;-44
2021/06/15 08:18:45;;;;;;;4.77;4.27;;;28.50;57.40;;;;;;5102068;28;20456;-42
2021/06/15 08:21:13;;;;;;;5.90;4.23;;;28.70;54.80;;;;;;5102321;28;20478;-43
2021/06/15 08:23:39;;;;;;;6.30;4.43;;;28.90;55.00;;;;;;5120267;28;20220;-41
2021/06/15 08:26:04;;;;;;;8.03;4.40;;;28.90;54.50;;;;;;5102280;28;20399;-42
2021/06/15 08:28:30;;;;;;;5.10;4.70;;;29.10;53.70;;;;;;5120379;28;20246;-44
2021/06/15 08:30:56;;;;;;;5.50;4.77;;;29.00;54.00;;;;;;5120353;28;20183;-40
2021/06/15 08:33:21;;;;;;;4.97;4.43;;;29.20;53.80;;;;;;5118366;28;20172;-45
2021/06/15 08:35:47;;;;;;;6.13;4.40;;;29.60;53.50;;;;;;5119670;28;20164;-39
2021/06/15 08:38:15;;;;;;;6.50;5.30;;;29.90;53.20;;;;;;5119068;28;20168;-40
2021/06/15 08:40:41;;;;;;;6.53;4.67;;;30.20;51.80;;;;;;5101203;28;20894;-41
2021/06/15 08:43:06;;;;;;;5.47;4.53;;;30.40;51.30;;;;;;5117176;28;20456;-41
2021/06/15 08:45:32;;;;;;;4.57;4.17;;;30.50;51.60;;;;;;5118756;28;20193;-38
2021/06/15 08:47:59;;;;;;;4.63;4.20;;;30.50;50.30;;;;;;5123066;27;20332;-38
2021/06/15 08:50:26;;;;;;;6.07;5.57;;;30.70;50.00;;;;;;5118516;28;20618;-40
2021/06/15 08:52:52;;;;;;;6.13;4.90;;;30.70;47.90;;;;;;5101047;28;20421;-40
2021/06/15 08:55:19;;;;;;;8.17;5.23;;;30.80;48.70;;;;;;5118403;28;20403;-40
2021/06/15 08:58:03;;;;;;;5.00;4.50;;;31.00;48.40;;;;;;5119758;28;20408;-40
2021/06/15 09:00:29;;;;;;;5.53;4.47;;;31.20;46.60;;;;;;5118879;28;20396;-40
2021/06/15 09:02:54;;;;;;;6.20;4.30;;;31.10;46.00;;;;;;5119776;28;20469;-39
2021/06/15 09:05:20;;;;;;;4.77;4.37;;;31.00;46.00;;;;;;5119808;28;20183;-40
2021/06/15 09:08:02;;;;;;;5.20;4.20;;;31.30;47.00;;;;;;5100348;28;20190;-41
2021/06/15 09:10:30;;;;;;;6.53;4.80;;;31.70;47.80;;;;;;5117697;28;20180;-41
2021/06/15 09:12:56;;;;;;;5.60;5.10;;;31.90;47.90;;;;;;5118451;28;20408;-40
2021/06/15 09:15:23;;;;;;;4.73;4.20;;;32.00;48.20;;;;;;5118833;28;20428;-40
2021/06/15 09:17:49;;;;;;;5.63;4.83;;;32.20;48.80;;;;;;5115938;28;20554;-40
2021/06/15 09:20:19;;;;;;;6.10;4.37;;;32.30;46.40;;;;;;5117588;28;20850;-40
2021/06/15 09:22:46;;;;;;;5.03;4.33;;;32.30;47.50;;;;;;5118208;28;20456;-40
2021/06/15 09:25:14;;;;;;;4.90;4.40;;;32.40;47.50;;;;;;5102034;28;20404;-39
2021/06/15 09:27:40;;;;;;;5.33;4.17;;;32.50;46.80;;;;;;5119125;28;20481;-40
2021/06/15 09:30:11;;;;;;;3.83;3.53;;;32.60;44.90;;;;;;5100616;28;20404;-41
2021/06/15 09:32:41;;;;;;;4.90;4.10;;;32.70;43.90;;;;;;5104380;27;20697;-39
2021/06/15 09:35:11;;;;;;;4.67;4.27;;;33.00;44.80;;;;;;5136500;27;20411;-40
2021/06/15 09:37:39;;;;;;;4.40;4.00;;;33.20;43.80;;;;;;5138277;27;20386;-40
2021/06/15 09:40:10;;;;;;;5.50;3.50;;;33.30;42.60;;;;;;5139380;27;20425;-40
2021/06/15 09:43:12;;;;;;;4.23;3.83;;;33.40;42.20;;;;;;5139837;27;20435;-40
2021/06/15 09:45:48;;;;;;;5.50;4.80;;;33.50;40.70;;;;;;5136847;27;20453;-39
2021/06/15 09:48:25;;;;;;;8.80;6.07;;;33.80;42.60;;;;;;5138809;27;20404;-39
2021/06/15 09:50:56;;;;;;;6.50;5.60;;;34.00;43.00;;;;;;5138268;27;20405;-40
2021/06/15 09:53:26;;;;;;;6.77;6.17;;;34.10;42.50;;;;;;5137825;27;20404;-39
2021/06/15 09:55:53;;;;;;;6.37;5.77;;;34.20;44.20;;;;;;5138704;27;20437;-40
2021/06/15 09:58:19;;;;;;;6.07;5.47;;;34.10;43.60;;;;;;5139413;27;20680;-40
2021/06/15 10:00:54;;;;;;;5.40;4.90;;;34.00;43.10;;;;;;5137831;27;20465;-40
2021/06/15 10:03:20;;;;;;;5.53;5.03;;;34.00;42.70;;;;;;5138783;27;20552;-41
2021/06/15 10:05:45;;;;;;;6.60;5.27;;;33.80;44.30;;;;;;5138039;27;20866;-40
2021/06/15 10:08:13;;;;;;;5.97;5.13;;;34.10;43.50;;;;;;5136737;27;20258;-41
2021/06/15 10:10:42;;;;;;;5.10;4.50;;;34.50;43.60;;;;;;5136879;27;20179;-42
2021/06/15 10:13:08;;;;;;;6.80;5.27;;;34.90;43.00;;;;;;5136555;27;20420;-41
2021/06/15 10:15:35;;;;;;;6.00;5.23;;;35.00;40.00;;;;;;5135052;27;20432;-40
2021/06/15 10:18:02;;;;;;;5.30;4.80;;;34.70;40.80;;;;;;5134571;27;20528;-40
2021/06/15 10:20:29;;;;;;;5.03;4.63;;;34.80;41.90;;;;;;5133961;27;20404;-40
2021/06/15 10:22:56;;;;;;;6.00;5.40;;;34.90;41.90;;;;;;5136664;27;20527;-40
2021/06/15 10:25:25;;;;;;;5.33;4.90;;;35.20;39.70;;;;;;5137751;27;20399;-41
2021/06/15 10:27:51;;;;;;;6.27;5.67;;;35.00;41.40;;;;;;5137154;27;20416;-41
2021/06/15 10:30:34;;;;;;;6.40;4.70;;;35.00;41.60;;;;;;5135616;27;20591;-40
2021/06/15 10:33:23;;;;;;;6.00;5.20;;;35.00;41.20;;;;;;5137575;27;20404;-40
2021/06/15 10:35:52;;;;;;;9.70;5.70;;;35.10;40.40;;;;;;5137358;27;20413;-42
2021/06/15 10:38:29;;;;;;;5.43;4.93;;;35.10;41.20;;;;;;5136590;27;20468;-40
2021/06/15 10:40:56;;;;;;;5.67;5.07;;;35.40;41.30;;;;;;5136696;27;20415;-42
2021/06/15 10:43:22;;;;;;;5.37;4.87;;;35.60;38.40;;;;;;5136919;27;20463;-40
2021/06/15 10:45:53;;;;;;;5.53;4.90;;;35.50;37.80;;;;;;5136906;27;20400;-40
2021/06/15 10:48:20;;;;;;;5.67;5.17;;;35.40;38.70;;;;;;5136903;27;20464;-40
2021/06/15 10:50:54;;;;;;;5.80;5.13;;;35.60;39.50;;;;;;5137142;27;20849;-41
2021/06/15 10:53:41;;;;;;;5.30;4.90;;;35.90;39.00;;;;;;5138635;27;20387;-41
2021/06/15 10:56:08;;;;;;;5.60;5.03;;;36.00;38.50;;;;;;5138299;27;20432;-41
2021/06/15 10:58:37;;;;;;;5.10;4.50;;;36.20;37.90;;;;;;5141229;27;20407;-41
2021/06/15 11:01:19;;;;;;;5.20;4.70;;;36.10;36.80;;;;;;5141506;27;20424;-40
2021/06/15 11:03:54;;;;;;;4.90;4.40;;;34.90;37.40;;;;;;5138730;27;20439;-41
2021/06/15 11:06:41;;;;;;;5.23;4.63;;;35.00;40.10;;;;;;5137851;27;20423;-41
2021/06/15 11:09:15;;;;;;;6.07;4.50;;;35.30;40.50;;;;;;5137179;27;20459;-41
2021/06/15 11:11:41;;;;;;;4.90;4.33;;;35.90;38.60;;;;;;5137361;27;20391;-40
2021/06/15 11:14:25;;;;;;;5.27;4.87;;;36.30;38.00;;;;;;5137427;27;20428;-40
2021/06/15 11:16:57;;;;;;;4.40;4.10;;;36.60;36.90;;;;;;5137653;28;20452;-40
2021/06/15 11:19:23;;;;;;;4.80;4.40;;;36.90;37.10;;;;;;5134372;28;20485;-41
2021/06/15 11:22:11;;;;;;;5.43;4.70;;;37.10;36.20;;;;;;5134477;28;20464;-41
2021/06/15 11:24:37;;;;;;;4.77;4.43;;;37.50;36.20;;;;;;5137387;28;20629;-41
2021/06/15 11:27:23;;;;;;;4.90;4.43;;;37.60;35.30;;;;;;5135335;28;20419;-38
2021/06/15 11:29:50;;;;;;;5.27;4.77;;;37.70;36.50;;;;;;5137842;28;20416;-40
2021/06/15 11:32:28;;;;;;;5.80;4.30;;;38.00;34.70;;;;;;5136848;28;20515;-38
2021/06/15 11:35:01;;;;;;;4.30;4.00;;;38.20;36.20;;;;;;5135209;28;20456;-40
2021/06/15 11:37:46;;;;;;;4.80;4.40;;;38.50;36.20;;;;;;5136321;27;20421;-40
2021/06/15 11:40:16;;;;;;;5.10;4.50;;;38.60;35.20;;;;;;5139971;27;20410;-40
2021/06/15 11:42:43;;;;;;;4.60;4.20;;;38.80;36.20;;;;;;5140728;27;20456;-39
2021/06/15 11:45:12;;;;;;;5.10;4.70;;;38.30;34.20;;;;;;5121216;27;20452;-40
2021/06/15 11:47:47;;;;;;;5.07;4.67;;;38.70;34.50;;;;;;5138440;27;20510;-40
2021/06/15 11:50:24;;;;;;;5.03;4.63;;;39.10;34.30;;;;;;5120417;27;20428;-39
2021/06/15 11:52:56;;;;;;;4.90;4.10;;;38.90;33.50;;;;;;5138647;27;20435;-41
2021/06/15 11:55:42;;;;;;;6.17;4.30;;;39.00;34.30;;;;;;5139565;27;20464;-39
2021/06/15 11:58:19;;;;;;;4.87;4.10;;;39.10;33.80;;;;;;5121654;27;20420;-38
2021/06/15 12:00:46;;;;;;;4.97;4.57;;;38.90;33.50;;;;;;5142028;27;20514;-39
2021/06/15 12:03:12;;;;;;;5.13;4.73;;;38.30;33.10;;;;;;5139866;27;20434;-39
2021/06/15 12:05:39;;;;;;;5.73;5.03;;;38.10;33.90;;;;;;5141316;27;20411;-40
2021/06/15 12:08:05;;;;;;;4.73;4.43;;;37.90;34.00;;;;;;5141258;27;20163;-38
2021/06/15 12:10:30;;;;;;;5.47;4.30;;;37.60;32.70;;;;;;5140785;27;20407;-40
2021/06/15 12:13:18;;;;;;;4.40;4.10;;;37.10;32.70;;;;;;5140020;27;20423;-38
2021/06/15 12:15:48;;;;;;;4.87;4.40;;;36.00;34.10;;;;;;5141017;27;20190;-39
2021/06/15 12:18:23;;;;;;;4.43;4.03;;;36.30;36.30;;;;;;5141416;27;20430;-39
2021/06/15 12:20:52;;;;;;;5.17;4.67;;;36.90;34.30;;;;;;5139936;27;20398;-41
2021/06/15 12:23:40;;;;;;;4.63;4.33;;;37.30;34.30;;;;;;5140137;27;20427;-40
2021/06/15 12:26:14;;;;;;;4.60;4.20;;;37.80;33.10;;;;;;5140872;27;20428;-40
2021/06/15 12:28:44;;;;;;;4.30;4.00;;;38.40;35.20;;;;;;5139874;27;20416;-39
2021/06/15 12:31:20;;;;;;;4.57;4.17;;;38.90;34.00;;;;;;5140181;27;20399;-39
2021/06/15 12:33:51;;;;;;;5.07;4.57;;;39.40;33.70;;;;;;5140256;27;20432;-38
2021/06/15 12:36:20;;;;;;;4.33;3.93;;;39.50;31.40;;;;;;5139700;27;20665;-38
2021/06/15 12:38:47;;;;;;;3.93;3.63;;;39.70;32.30;;;;;;5121273;27;20527;-38
2021/06/15 12:41:31;;;;;;;5.07;4.50;;;39.80;33.10;;;;;;5139266;27;20836;-38
2021/06/15 12:44:00;;;;;;;4.70;4.30;;;40.00;32.40;;;;;;5120375;27;20830;-41
2021/06/15 12:46:34;;;;;;;3.93;3.63;;;38.90;30.70;;;;;;5139246;27;20476;-38
2021/06/15 12:49:01;;;;;;;4.10;3.70;;;39.10;31.60;;;;;;5139158;27;20421;-38
2021/06/15 12:51:29;;;;;;;3.83;3.53;;;39.30;30.80;;;;;;5139677;27;20740;-39
2021/06/15 12:54:02;;;;;;;4.13;3.83;;;39.20;32.50;;;;;;5119710;28;20410;-39
2021/06/15 12:56:29;;;;;;;4.20;3.80;;;39.30;32.90;;;;;;5119039;28;20422;-38
2021/06/15 12:58:58;;;;;;;3.97;3.67;;;39.20;31.90;;;;;;5137831;27;20523;-38
2021/06/15 13:01:36;;;;;;;4.60;4.10;;;39.30;32.40;;;;;;5120533;27;20470;-40